sensor_id;sensor_type;location;lat;lon;timestamp;P1;durP1;ratioP1;P2;durP2;ratioP2
59516;SDS011;45342;42.662;27.718;2023-06-24T00:02:07;10.75;;;9.65;;
59516;SDS011;45342;42.662;27.718;2023-06-24T00:04:33;12.55;;;9.70;;
59516;SDS011;45342;42.662;27.718;2023-06-24T00:09:28;12.38;;;9.45;;
59516;SDS011;45342;42.662;27.718;2023-06-24T00:11:58;14.88;;;10.10;;
59516;SDS011;45342;42.662;27.718;2023-06-24T00:14:24;10.98;;;9.60;;
59516;SDS011;45342;42.662;27.718;2023-06-24T00:16:51;11.65;;;9.23;;
59516;SDS011;45342;42.662;27.718;2023-06-24T00:19:18;10.73;;;9.63;;
59516;SDS011;45342;42.662;27.718;2023-06-24T00:21:48;11.35;;;9.48;;
59516;SDS011;45342;42.662;27.718;2023-06-24T00:24:16;12.00;;;9.95;;
59516;SDS011;45342;42.662;27.718;2023-06-24T00:26:45;11.45;;;9.45;;
59516;SDS011;45342;42.662;27.718;2023-06-24T00:29:12;11.30;;;9.88;;
59516;SDS011;45342;42.662;27.718;2023-06-24T00:31:38;13.15;;;10.13;;
59516;SDS011;45342;42.662;27.718;2023-06-24T00:36:29;10.88;;;9.30;;
59516;SDS011;45342;42.662;27.718;2023-06-24T00:38:57;11.30;;;9.95;;
59516;SDS011;45342;42.662;27.718;2023-06-24T00:41:26;10.88;;;9.45;;
59516;SDS011;45342;42.662;27.718;2023-06-24T00:46:17;12.45;;;9.27;;
59516;SDS011;45342;42.662;27.718;2023-06-24T00:48:44;10.93;;;9.77;;
59516;SDS011;45342;42.662;27.718;2023-06-24T00:53:36;11.82;;;9.90;;
59516;SDS011;45342;42.662;27.718;2023-06-24T00:56:02;9.95;;;8.95;;
59516;SDS011;45342;42.662;27.718;2023-06-24T01:00:55;11.23;;;9.00;;
59516;SDS011;45342;42.662;27.718;2023-06-24T01:03:26;10.20;;;8.63;;
59516;SDS011;45342;42.662;27.718;2023-06-24T01:05:52;11.10;;;9.00;;
59516;SDS011;45342;42.662;27.718;2023-06-24T01:08:19;10.85;;;8.93;;
59516;SDS011;45342;42.662;27.718;2023-06-24T01:10:48;9.77;;;8.77;;
59516;SDS011;45342;42.662;27.718;2023-06-24T01:13:17;10.55;;;9.32;;
59516;SDS011;45342;42.662;27.718;2023-06-24T01:18:13;11.40;;;8.88;;
59516;SDS011;45342;42.662;27.718;2023-06-24T01:31:39;10.32;;;8.52;;
59516;SDS011;45342;42.662;27.718;2023-06-24T01:36:38;10.18;;;8.80;;
59516;SDS011;45342;42.662;27.718;2023-06-24T01:39:09;10.73;;;8.77;;
59516;SDS011;45342;42.662;27.718;2023-06-24T01:41:47;12.38;;;8.98;;
59516;SDS011;45342;42.662;27.718;2023-06-24T01:44:16;9.95;;;8.95;;
59516;SDS011;45342;42.662;27.718;2023-06-24T01:46:44;9.90;;;8.90;;
59516;SDS011;45342;42.662;27.718;2023-06-24T01:49:12;9.43;;;8.52;;
59516;SDS011;45342;42.662;27.718;2023-06-24T01:51:38;9.68;;;8.48;;
59516;SDS011;45342;42.662;27.718;2023-06-24T01:54:07;9.85;;;8.85;;
59516;SDS011;45342;42.662;27.718;2023-06-24T01:56:37;9.23;;;8.32;;
59516;SDS011;45342;42.662;27.718;2023-06-24T01:59:03;9.48;;;8.57;;
59516;SDS011;45342;42.662;27.718;2023-06-24T02:01:31;9.10;;;8.20;;
59516;SDS011;45342;42.662;27.718;2023-06-24T02:03:57;11.15;;;9.07;;
59516;SDS011;45342;42.662;27.718;2023-06-24T02:06:24;9.50;;;8.60;;
59516;SDS011;45342;42.662;27.718;2023-06-24T02:08:52;10.27;;;8.90;;
59516;SDS011;45342;42.662;27.718;2023-06-24T02:11:19;9.60;;;8.70;;
59516;SDS011;45342;42.662;27.718;2023-06-24T02:13:47;9.07;;;8.18;;
59516;SDS011;45342;42.662;27.718;2023-06-24T02:16:13;8.63;;;7.72;;
59516;SDS011;45342;42.662;27.718;2023-06-24T02:18:39;9.30;;;8.40;;
59516;SDS011;45342;42.662;27.718;2023-06-24T02:21:08;8.93;;;8.02;;
59516;SDS011;45342;42.662;27.718;2023-06-24T02:23:35;9.10;;;8.20;;
59516;SDS011;45342;42.662;27.718;2023-06-24T02:26:02;9.20;;;8.30;;
59516;SDS011;45342;42.662;27.718;2023-06-24T02:28:29;9.63;;;8.63;;
59516;SDS011;45342;42.662;27.718;2023-06-24T02:30:54;8.50;;;7.70;;
59516;SDS011;45342;42.662;27.718;2023-06-24T02:35:46;9.88;;;8.07;;
59516;SDS011;45342;42.662;27.718;2023-06-24T02:40:37;9.30;;;7.78;;
59516;SDS011;45342;42.662;27.718;2023-06-24T02:43:04;8.77;;;7.93;;
59516;SDS011;45342;42.662;27.718;2023-06-24T02:45:29;8.90;;;7.70;;
59516;SDS011;45342;42.662;27.718;2023-06-24T02:50:21;8.93;;;7.90;;
59516;SDS011;45342;42.662;27.718;2023-06-24T02:55:12;9.10;;;8.20;;
59516;SDS011;45342;42.662;27.718;2023-06-24T02:57:38;8.93;;;8.02;;
59516;SDS011;45342;42.662;27.718;2023-06-24T03:00:05;8.80;;;7.90;;
59516;SDS011;45342;42.662;27.718;2023-06-24T03:02:37;9.13;;;8.23;;
59516;SDS011;45342;42.662;27.718;2023-06-24T03:05:03;8.80;;;7.90;;
59516;SDS011;45342;42.662;27.718;2023-06-24T03:07:30;8.68;;;7.75;;
59516;SDS011;45342;42.662;27.718;2023-06-24T03:12:21;8.75;;;7.85;;
59516;SDS011;45342;42.662;27.718;2023-06-24T03:14:47;9.73;;;8.38;;
59516;SDS011;45342;42.662;27.718;2023-06-24T03:19:38;9.18;;;8.27;;
59516;SDS011;45342;42.662;27.718;2023-06-24T03:22:03;8.70;;;7.80;;
59516;SDS011;45342;42.662;27.718;2023-06-24T03:24:29;9.70;;;8.27;;
59516;SDS011;45342;42.662;27.718;2023-06-24T03:29:25;8.60;;;7.80;;
59516;SDS011;45342;42.662;27.718;2023-06-24T03:31:50;9.85;;;8.23;;
59516;SDS011;45342;42.662;27.718;2023-06-24T03:36:42;8.63;;;7.82;;
59516;SDS011;45342;42.662;27.718;2023-06-24T03:39:08;8.60;;;7.80;;
59516;SDS011;45342;42.662;27.718;2023-06-24T03:43:59;8.98;;;7.57;;
59516;SDS011;45342;42.662;27.718;2023-06-24T03:46:25;8.77;;;7.70;;
59516;SDS011;45342;42.662;27.718;2023-06-24T03:51:16;8.90;;;8.00;;
59516;SDS011;45342;42.662;27.718;2023-06-24T03:56:08;9.20;;;7.88;;
59516;SDS011;45342;42.662;27.718;2023-06-24T04:00:59;8.30;;;7.47;;
59516;SDS011;45342;42.662;27.718;2023-06-24T04:03:25;9.38;;;8.10;;
59516;SDS011;45342;42.662;27.718;2023-06-24T04:08:20;9.45;;;7.75;;
59516;SDS011;45342;42.662;27.718;2023-06-24T04:10:46;10.85;;;8.15;;
59516;SDS011;45342;42.662;27.718;2023-06-24T04:15:37;8.73;;;7.72;;
59516;SDS011;45342;42.662;27.718;2023-06-24T04:20:28;8.68;;;7.85;;
59516;SDS011;45342;42.662;27.718;2023-06-24T04:25:19;9.30;;;8.02;;
59516;SDS011;45342;42.662;27.718;2023-06-24T04:27:45;8.70;;;7.82;;
59516;SDS011;45342;42.662;27.718;2023-06-24T04:32:36;7.93;;;7.20;;
59516;SDS011;45342;42.662;27.718;2023-06-24T04:37:29;8.35;;;7.45;;
59516;SDS011;45342;42.662;27.718;2023-06-24T04:42:21;9.73;;;8.05;;
59516;SDS011;45342;42.662;27.718;2023-06-24T04:44:48;11.55;;;8.35;;
59516;SDS011;45342;42.662;27.718;2023-06-24T04:47:16;8.88;;;7.97;;
59516;SDS011;45342;42.662;27.718;2023-06-24T04:49:44;9.30;;;8.15;;
59516;SDS011;45342;42.662;27.718;2023-06-24T04:54:36;9.20;;;7.78;;
59516;SDS011;45342;42.662;27.718;2023-06-24T04:59:27;9.23;;;7.68;;
59516;SDS011;45342;42.662;27.718;2023-06-24T05:04:18;9.18;;;8.10;;
59516;SDS011;45342;42.662;27.718;2023-06-24T05:09:09;8.45;;;7.65;;
59516;SDS011;45342;42.662;27.718;2023-06-24T05:11:40;8.35;;;7.28;;
59516;SDS011;45342;42.662;27.718;2023-06-24T05:14:06;8.00;;;7.20;;
59516;SDS011;45342;42.662;27.718;2023-06-24T05:16:32;7.82;;;7.13;;
59516;SDS011;45342;42.662;27.718;2023-06-24T05:21:23;8.25;;;7.22;;
59516;SDS011;45342;42.662;27.718;2023-06-24T05:26:14;7.55;;;6.85;;
59516;SDS011;45342;42.662;27.718;2023-06-24T05:31:05;7.90;;;7.10;;
59516;SDS011;45342;42.662;27.718;2023-06-24T05:35:57;8.70;;;7.33;;
59516;SDS011;45342;42.662;27.718;2023-06-24T05:40:48;7.57;;;6.88;;
59516;SDS011;45342;42.662;27.718;2023-06-24T05:45:40;7.50;;;6.78;;
59516;SDS011;45342;42.662;27.718;2023-06-24T05:50:31;8.60;;;7.38;;
59516;SDS011;45342;42.662;27.718;2023-06-24T05:55:22;8.35;;;7.43;;
59516;SDS011;45342;42.662;27.718;2023-06-24T06:00:14;7.70;;;6.90;;
59516;SDS011;45342;42.662;27.718;2023-06-24T06:02:39;7.50;;;6.78;;
59516;SDS011;45342;42.662;27.718;2023-06-24T06:05:05;7.40;;;6.70;;
59516;SDS011;45342;42.662;27.718;2023-06-24T06:09:56;7.95;;;6.95;;
59516;SDS011;45342;42.662;27.718;2023-06-24T06:14:47;7.93;;;7.18;;
59516;SDS011;45342;42.662;27.718;2023-06-24T06:17:13;10.60;;;6.95;;
59516;SDS011;45342;42.662;27.718;2023-06-24T06:19:40;14.20;;;8.73;;
59516;SDS011;45342;42.662;27.718;2023-06-24T06:22:06;14.38;;;7.40;;
59516;SDS011;45342;42.662;27.718;2023-06-24T06:24:33;11.73;;;8.15;;
59516;SDS011;45342;42.662;27.718;2023-06-24T06:29:24;11.52;;;7.13;;
59516;SDS011;45342;42.662;27.718;2023-06-24T06:34:15;10.98;;;7.05;;
59516;SDS011;45342;42.662;27.718;2023-06-24T06:39:06;8.95;;;7.03;;
59516;SDS011;45342;42.662;27.718;2023-06-24T06:43:58;10.63;;;6.68;;
59516;SDS011;45342;42.662;27.718;2023-06-24T06:48:49;7.65;;;6.35;;
59516;SDS011;45342;42.662;27.718;2023-06-24T06:53:40;6.93;;;5.95;;
59516;SDS011;45342;42.662;27.718;2023-06-24T06:56:05;7.05;;;6.35;;
59516;SDS011;45342;42.662;27.718;2023-06-24T07:00:59;6.55;;;5.75;;
59516;SDS011;45342;42.662;27.718;2023-06-24T07:03:26;8.30;;;6.20;;
59516;SDS011;45342;42.662;27.718;2023-06-24T07:05:53;7.95;;;5.75;;
59516;SDS011;45342;42.662;27.718;2023-06-24T07:10:44;6.13;;;5.53;;
59516;SDS011;45342;42.662;27.718;2023-06-24T07:13:10;6.50;;;5.65;;
59516;SDS011;45342;42.662;27.718;2023-06-24T07:15:35;6.93;;;5.78;;
59516;SDS011;45342;42.662;27.718;2023-06-24T07:20:26;7.35;;;5.78;;
59516;SDS011;45342;42.662;27.718;2023-06-24T07:25:17;6.60;;;5.50;;
59516;SDS011;45342;42.662;27.718;2023-06-24T07:30:09;6.18;;;5.57;;
59516;SDS011;45342;42.662;27.718;2023-06-24T07:35:00;7.05;;;5.47;;
59516;SDS011;45342;42.662;27.718;2023-06-24T07:39:51;6.13;;;5.18;;
59516;SDS011;45342;42.662;27.718;2023-06-24T07:42:16;5.88;;;5.28;;
59516;SDS011;45342;42.662;27.718;2023-06-24T07:44:47;5.30;;;4.80;;
59516;SDS011;45342;42.662;27.718;2023-06-24T07:47:13;5.90;;;5.15;;
59516;SDS011;45342;42.662;27.718;2023-06-24T07:52:04;5.47;;;4.93;;
59516;SDS011;45342;42.662;27.718;2023-06-24T07:54:31;5.35;;;4.80;;
59516;SDS011;45342;42.662;27.718;2023-06-24T07:56:57;5.57;;;4.70;;
59516;SDS011;45342;42.662;27.718;2023-06-24T08:01:49;5.90;;;4.67;;
59516;SDS011;45342;42.662;27.718;2023-06-24T08:04:15;6.22;;;4.75;;
59516;SDS011;45342;42.662;27.718;2023-06-24T08:06:41;5.65;;;5.03;;
59516;SDS011;45342;42.662;27.718;2023-06-24T08:11:32;5.93;;;4.75;;
59516;SDS011;45342;42.662;27.718;2023-06-24T08:13:58;6.00;;;4.90;;
59516;SDS011;45342;42.662;27.718;2023-06-24T08:16:23;5.60;;;4.60;;
59516;SDS011;45342;42.662;27.718;2023-06-24T08:18:49;5.00;;;4.50;;
59516;SDS011;45342;42.662;27.718;2023-06-24T08:21:15;5.43;;;4.80;;
59516;SDS011;45342;42.662;27.718;2023-06-24T08:26:06;5.88;;;4.57;;
59516;SDS011;45342;42.662;27.718;2023-06-24T08:28:43;6.43;;;5.00;;
59516;SDS011;45342;42.662;27.718;2023-06-24T08:31:11;5.50;;;4.75;;
59516;SDS011;45342;42.662;27.718;2023-06-24T08:36:23;5.85;;;4.13;;
59516;SDS011;45342;42.662;27.718;2023-06-24T08:38:49;4.80;;;4.40;;
59516;SDS011;45342;42.662;27.718;2023-06-24T08:43:40;5.93;;;4.70;;
59516;SDS011;45342;42.662;27.718;2023-06-24T08:48:43;5.75;;;4.80;;
59516;SDS011;45342;42.662;27.718;2023-06-24T08:51:13;5.72;;;4.55;;
59516;SDS011;45342;42.662;27.718;2023-06-24T08:53:42;5.57;;;4.45;;
59516;SDS011;45342;42.662;27.718;2023-06-24T08:56:11;5.57;;;4.82;;
59516;SDS011;45342;42.662;27.718;2023-06-24T09:01:03;5.75;;;4.40;;
59516;SDS011;45342;42.662;27.718;2023-06-24T09:03:36;5.75;;;4.65;;
59516;SDS011;45342;42.662;27.718;2023-06-24T09:06:02;6.43;;;4.40;;
59516;SDS011;45342;42.662;27.718;2023-06-24T09:10:54;5.85;;;4.43;;
59516;SDS011;45342;42.662;27.718;2023-06-24T09:13:35;4.97;;;4.20;;
59516;SDS011;45342;42.662;27.718;2023-06-24T09:16:21;4.93;;;4.43;;
59516;SDS011;45342;42.662;27.718;2023-06-24T09:18:52;5.40;;;4.68;;
59516;SDS011;45342;42.662;27.718;2023-06-24T09:21:38;5.47;;;4.80;;
59516;SDS011;45342;42.662;27.718;2023-06-24T09:24:04;5.05;;;4.43;;
59516;SDS011;45342;42.662;27.718;2023-06-24T09:26:32;5.20;;;4.60;;
59516;SDS011;45342;42.662;27.718;2023-06-24T09:31:32;5.38;;;4.35;;
59516;SDS011;45342;42.662;27.718;2023-06-24T09:34:03;4.88;;;4.38;;
59516;SDS011;45342;42.662;27.718;2023-06-24T09:36:29;5.22;;;4.50;;
59516;SDS011;45342;42.662;27.718;2023-06-24T09:41:27;6.13;;;4.68;;
59516;SDS011;45342;42.662;27.718;2023-06-24T09:43:58;6.55;;;4.40;;
59516;SDS011;45342;42.662;27.718;2023-06-24T09:46:35;5.22;;;4.40;;
59516;SDS011;45342;42.662;27.718;2023-06-24T09:49:01;5.50;;;4.40;;
59516;SDS011;45342;42.662;27.718;2023-06-24T09:51:27;4.97;;;4.35;;
59516;SDS011;45342;42.662;27.718;2023-06-24T09:56:18;5.18;;;4.65;;
59516;SDS011;45342;42.662;27.718;2023-06-24T09:58:47;5.15;;;4.43;;
59516;SDS011;45342;42.662;27.718;2023-06-24T10:01:13;5.18;;;4.38;;
59516;SDS011;45342;42.662;27.718;2023-06-24T10:03:38;5.05;;;4.13;;
59516;SDS011;45342;42.662;27.718;2023-06-24T10:06:04;5.20;;;4.70;;
59516;SDS011;45342;42.662;27.718;2023-06-24T10:08:31;6.35;;;4.53;;
59516;SDS011;45342;42.662;27.718;2023-06-24T10:11:00;5.35;;;4.85;;
59516;SDS011;45342;42.662;27.718;2023-06-24T10:13:27;5.03;;;4.40;;
59516;SDS011;45342;42.662;27.718;2023-06-24T10:15:54;4.82;;;4.20;;
59516;SDS011;45342;42.662;27.718;2023-06-24T10:18:33;5.13;;;4.28;;
59516;SDS011;45342;42.662;27.718;2023-06-24T10:21:03;5.00;;;4.50;;
59516;SDS011;45342;42.662;27.718;2023-06-24T10:23:40;6.75;;;4.57;;
59516;SDS011;45342;42.662;27.718;2023-06-24T10:26:26;4.60;;;4.18;;
59516;SDS011;45342;42.662;27.718;2023-06-24T10:44:52;6.38;;;4.45;;
59516;SDS011;45342;42.662;27.718;2023-06-24T10:47:23;5.93;;;4.55;;
59516;SDS011;45342;42.662;27.718;2023-06-24T10:49:50;7.60;;;4.85;;
59516;SDS011;45342;42.662;27.718;2023-06-24T10:52:19;7.20;;;5.00;;
59516;SDS011;45342;42.662;27.718;2023-06-24T10:54:46;10.15;;;5.38;;
59516;SDS011;45342;42.662;27.718;2023-06-24T10:57:12;11.57;;;5.75;;
59516;SDS011;45342;42.662;27.718;2023-06-24T10:59:41;10.75;;;5.45;;
59516;SDS011;45342;42.662;27.718;2023-06-24T11:02:08;13.75;;;6.15;;
59516;SDS011;45342;42.662;27.718;2023-06-24T11:04:44;13.90;;;5.72;;
59516;SDS011;45342;42.662;27.718;2023-06-24T11:07:10;15.43;;;6.05;;
59516;SDS011;45342;42.662;27.718;2023-06-24T11:09:36;20.10;;;7.40;;
59516;SDS011;45342;42.662;27.718;2023-06-24T11:12:04;20.73;;;7.55;;
59516;SDS011;45342;42.662;27.718;2023-06-24T11:14:32;25.05;;;8.50;;
59516;SDS011;45342;42.662;27.718;2023-06-24T11:17:00;28.73;;;8.45;;
59516;SDS011;45342;42.662;27.718;2023-06-24T11:19:27;29.60;;;9.10;;
59516;SDS011;45342;42.662;27.718;2023-06-24T11:21:53;28.48;;;9.57;;
59516;SDS011;45342;42.662;27.718;2023-06-24T11:24:18;32.05;;;10.02;;
59516;SDS011;45342;42.662;27.718;2023-06-24T11:26:45;32.58;;;10.10;;
59516;SDS011;45342;42.662;27.718;2023-06-24T11:29:11;33.28;;;10.23;;
59516;SDS011;45342;42.662;27.718;2023-06-24T11:31:36;34.00;;;10.82;;
59516;SDS011;45342;42.662;27.718;2023-06-24T11:34:03;39.05;;;11.75;;
59516;SDS011;45342;42.662;27.718;2023-06-24T11:36:29;39.60;;;11.90;;
59516;SDS011;45342;42.662;27.718;2023-06-24T11:38:55;41.50;;;11.82;;
59516;SDS011;45342;42.662;27.718;2023-06-24T11:41:21;34.22;;;11.50;;
59516;SDS011;45342;42.662;27.718;2023-06-24T11:43:48;44.20;;;12.23;;
59516;SDS011;45342;42.662;27.718;2023-06-24T11:46:29;42.28;;;12.82;;
59516;SDS011;45342;42.662;27.718;2023-06-24T11:49:04;34.55;;;12.27;;
59516;SDS011;45342;42.662;27.718;2023-06-24T11:51:36;35.50;;;12.18;;
59516;SDS011;45342;42.662;27.718;2023-06-24T11:54:03;33.03;;;12.00;;
59516;SDS011;45342;42.662;27.718;2023-06-24T11:56:39;39.13;;;12.13;;
59516;SDS011;45342;42.662;27.718;2023-06-24T11:59:26;36.22;;;12.70;;
59516;SDS011;45342;42.662;27.718;2023-06-24T12:04:29;35.05;;;12.32;;
59516;SDS011;45342;42.662;27.718;2023-06-24T12:06:55;34.20;;;11.98;;
59516;SDS011;45342;42.662;27.718;2023-06-24T12:09:21;32.72;;;12.40;;
59516;SDS011;45342;42.662;27.718;2023-06-24T12:11:47;36.40;;;12.52;;
59516;SDS011;45342;42.662;27.718;2023-06-24T12:14:13;29.48;;;11.60;;
59516;SDS011;45342;42.662;27.718;2023-06-24T12:16:39;32.45;;;12.00;;
59516;SDS011;45342;42.662;27.718;2023-06-24T12:19:05;35.22;;;12.10;;
59516;SDS011;45342;42.662;27.718;2023-06-24T12:21:32;30.80;;;11.65;;
59516;SDS011;45342;42.662;27.718;2023-06-24T12:23:57;32.30;;;11.48;;
59516;SDS011;45342;42.662;27.718;2023-06-24T12:26:23;28.60;;;11.05;;
59516;SDS011;45342;42.662;27.718;2023-06-24T12:28:49;29.90;;;11.90;;
59516;SDS011;45342;42.662;27.718;2023-06-24T12:31:14;29.77;;;11.88;;
59516;SDS011;45342;42.662;27.718;2023-06-24T12:33:40;34.08;;;11.63;;
59516;SDS011;45342;42.662;27.718;2023-06-24T12:36:06;28.83;;;11.25;;
59516;SDS011;45342;42.662;27.718;2023-06-24T12:38:31;28.92;;;11.30;;
59516;SDS011;45342;42.662;27.718;2023-06-24T12:40:57;25.85;;;11.38;;
59516;SDS011;45342;42.662;27.718;2023-06-24T12:43:23;28.90;;;10.57;;
59516;SDS011;45342;42.662;27.718;2023-06-24T12:45:49;23.27;;;10.68;;
59516;SDS011;45342;42.662;27.718;2023-06-24T12:48:16;24.63;;;10.82;;
59516;SDS011;45342;42.662;27.718;2023-06-24T12:50:42;28.35;;;11.25;;
59516;SDS011;45342;42.662;27.718;2023-06-24T12:53:08;27.55;;;10.45;;
59516;SDS011;45342;42.662;27.718;2023-06-24T12:55:36;24.42;;;10.93;;
59516;SDS011;45342;42.662;27.718;2023-06-24T12:58:02;25.85;;;10.10;;
59516;SDS011;45342;42.662;27.718;2023-06-24T13:00:27;22.65;;;9.68;;
59516;SDS011;45342;42.662;27.718;2023-06-24T13:02:56;23.38;;;9.65;;
59516;SDS011;45342;42.662;27.718;2023-06-24T13:05:21;22.60;;;9.88;;
59516;SDS011;45342;42.662;27.718;2023-06-24T13:07:47;21.17;;;9.52;;
59516;SDS011;45342;42.662;27.718;2023-06-24T13:10:13;20.65;;;8.88;;
59516;SDS011;45342;42.662;27.718;2023-06-24T13:12:38;22.15;;;9.23;;
59516;SDS011;45342;42.662;27.718;2023-06-24T13:15:05;20.58;;;9.15;;
59516;SDS011;45342;42.662;27.718;2023-06-24T13:17:31;19.50;;;9.57;;
59516;SDS011;45342;42.662;27.718;2023-06-24T13:19:57;20.58;;;9.55;;
59516;SDS011;45342;42.662;27.718;2023-06-24T13:22:23;22.10;;;9.77;;
59516;SDS011;45342;42.662;27.718;2023-06-24T13:24:49;18.20;;;8.93;;
59516;SDS011;45342;42.662;27.718;2023-06-24T13:27:15;20.92;;;9.23;;
59516;SDS011;45342;42.662;27.718;2023-06-24T13:29:41;22.08;;;9.27;;
59516;SDS011;45342;42.662;27.718;2023-06-24T13:32:07;19.45;;;9.57;;
59516;SDS011;45342;42.662;27.718;2023-06-24T13:34:33;18.08;;;8.93;;
59516;SDS011;45342;42.662;27.718;2023-06-24T13:36:59;19.45;;;8.88;;
59516;SDS011;45342;42.662;27.718;2023-06-24T13:39:25;16.92;;;8.85;;
59516;SDS011;45342;42.662;27.718;2023-06-24T13:41:51;18.08;;;8.45;;
59516;SDS011;45342;42.662;27.718;2023-06-24T13:44:17;19.33;;;8.75;;
59516;SDS011;45342;42.662;27.718;2023-06-24T13:46:43;19.88;;;8.77;;
59516;SDS011;45342;42.662;27.718;2023-06-24T13:49:09;17.85;;;8.38;;
59516;SDS011;45342;42.662;27.718;2023-06-24T13:51:35;17.98;;;8.80;;
59516;SDS011;45342;42.662;27.718;2023-06-24T13:54:01;19.92;;;8.88;;
59516;SDS011;45342;42.662;27.718;2023-06-24T13:56:26;16.05;;;8.20;;
59516;SDS011;45342;42.662;27.718;2023-06-24T13:58:53;19.02;;;8.95;;
59516;SDS011;45342;42.662;27.718;2023-06-24T14:01:19;15.93;;;8.00;;
59516;SDS011;45342;42.662;27.718;2023-06-24T14:03:45;16.48;;;7.85;;
59516;SDS011;45342;42.662;27.718;2023-06-24T14:06:13;15.90;;;8.50;;
59516;SDS011;45342;42.662;27.718;2023-06-24T14:08:40;17.15;;;7.78;;
59516;SDS011;45342;42.662;27.718;2023-06-24T14:11:06;17.67;;;7.80;;
59516;SDS011;45342;42.662;27.718;2023-06-24T14:13:31;12.43;;;7.20;;
59516;SDS011;45342;42.662;27.718;2023-06-24T14:16:00;14.77;;;7.65;;
59516;SDS011;45342;42.662;27.718;2023-06-24T14:18:38;15.63;;;7.88;;
59516;SDS011;45342;42.662;27.718;2023-06-24T14:21:04;14.25;;;7.53;;
59516;SDS011;45342;42.662;27.718;2023-06-24T14:23:31;15.02;;;7.28;;
59516;SDS011;45342;42.662;27.718;2023-06-24T14:25:57;13.80;;;7.00;;
59516;SDS011;45342;42.662;27.718;2023-06-24T14:28:24;16.95;;;7.68;;
59516;SDS011;45342;42.662;27.718;2023-06-24T14:30:50;14.98;;;7.82;;
59516;SDS011;45342;42.662;27.718;2023-06-24T14:33:16;14.63;;;7.07;;
59516;SDS011;45342;42.662;27.718;2023-06-24T14:35:41;13.27;;;6.95;;
59516;SDS011;45342;42.662;27.718;2023-06-24T14:38:07;12.27;;;6.75;;
59516;SDS011;45342;42.662;27.718;2023-06-24T14:40:33;13.00;;;7.28;;
59516;SDS011;45342;42.662;27.718;2023-06-24T14:42:59;16.13;;;7.28;;
59516;SDS011;45342;42.662;27.718;2023-06-24T14:45:25;13.48;;;6.78;;
59516;SDS011;45342;42.662;27.718;2023-06-24T14:47:51;13.25;;;6.93;;
59516;SDS011;45342;42.662;27.718;2023-06-24T14:50:16;11.68;;;6.35;;
59516;SDS011;45342;42.662;27.718;2023-06-24T14:52:42;12.15;;;6.68;;
59516;SDS011;45342;42.662;27.718;2023-06-24T14:55:08;11.88;;;6.60;;
59516;SDS011;45342;42.662;27.718;2023-06-24T14:57:34;12.45;;;6.82;;
59516;SDS011;45342;42.662;27.718;2023-06-24T15:00:01;13.52;;;7.05;;
59516;SDS011;45342;42.662;27.718;2023-06-24T15:02:27;11.18;;;6.45;;
59516;SDS011;45342;42.662;27.718;2023-06-24T15:04:52;10.98;;;6.07;;
59516;SDS011;45342;42.662;27.718;2023-06-24T15:07:18;10.38;;;5.95;;
59516;SDS011;45342;42.662;27.718;2023-06-24T15:09:43;12.20;;;6.63;;
59516;SDS011;45342;42.662;27.718;2023-06-24T15:12:09;14.27;;;7.00;;
59516;SDS011;45342;42.662;27.718;2023-06-24T15:14:36;13.73;;;6.18;;
59516;SDS011;45342;42.662;27.718;2023-06-24T15:17:02;11.00;;;6.40;;
59516;SDS011;45342;42.662;27.718;2023-06-24T15:19:27;11.57;;;6.05;;
59516;SDS011;45342;42.662;27.718;2023-06-24T15:21:53;13.65;;;5.88;;
59516;SDS011;45342;42.662;27.718;2023-06-24T15:24:19;10.43;;;5.90;;
59516;SDS011;45342;42.662;27.718;2023-06-24T15:26:45;10.88;;;5.55;;
59516;SDS011;45342;42.662;27.718;2023-06-24T15:29:10;10.55;;;6.00;;
59516;SDS011;45342;42.662;27.718;2023-06-24T15:31:36;10.43;;;6.07;;
59516;SDS011;45342;42.662;27.718;2023-06-24T15:34:01;11.77;;;6.22;;
59516;SDS011;45342;42.662;27.718;2023-06-24T15:36:27;10.82;;;5.93;;
59516;SDS011;45342;42.662;27.718;2023-06-24T15:38:54;11.90;;;5.82;;
59516;SDS011;45342;42.662;27.718;2023-06-24T15:41:20;9.57;;;5.90;;
59516;SDS011;45342;42.662;27.718;2023-06-24T15:43:46;8.88;;;5.18;;
59516;SDS011;45342;42.662;27.718;2023-06-24T15:46:12;9.82;;;5.70;;
59516;SDS011;45342;42.662;27.718;2023-06-24T15:48:38;9.32;;;5.60;;
59516;SDS011;45342;42.662;27.718;2023-06-24T15:51:03;9.85;;;5.78;;
59516;SDS011;45342;42.662;27.718;2023-06-24T15:53:29;9.48;;;5.50;;
59516;SDS011;45342;42.662;27.718;2023-06-24T15:55:55;8.82;;;5.38;;
59516;SDS011;45342;42.662;27.718;2023-06-24T15:58:21;10.80;;;6.25;;
59516;SDS011;45342;42.662;27.718;2023-06-24T16:00:46;9.38;;;6.03;;
59516;SDS011;45342;42.662;27.718;2023-06-24T16:03:12;11.65;;;6.63;;
59516;SDS011;45342;42.662;27.718;2023-06-24T16:05:38;12.27;;;6.65;;
59516;SDS011;45342;42.662;27.718;2023-06-24T16:08:04;13.02;;;6.63;;
59516;SDS011;45342;42.662;27.718;2023-06-24T16:10:29;9.90;;;6.35;;
59516;SDS011;45342;42.662;27.718;2023-06-24T16:12:55;9.13;;;6.40;;
59516;SDS011;45342;42.662;27.718;2023-06-24T16:15:21;10.60;;;6.38;;
59516;SDS011;45342;42.662;27.718;2023-06-24T16:17:46;11.93;;;6.60;;
59516;SDS011;45342;42.662;27.718;2023-06-24T16:20:12;10.68;;;6.57;;
59516;SDS011;45342;42.662;27.718;2023-06-24T16:22:43;10.40;;;5.97;;
59516;SDS011;45342;42.662;27.718;2023-06-24T16:25:09;10.88;;;6.38;;
59516;SDS011;45342;42.662;27.718;2023-06-24T16:27:35;12.00;;;6.07;;
59516;SDS011;45342;42.662;27.718;2023-06-24T16:30:01;9.80;;;6.43;;
59516;SDS011;45342;42.662;27.718;2023-06-24T16:32:26;10.60;;;6.15;;
59516;SDS011;45342;42.662;27.718;2023-06-24T16:34:52;9.40;;;5.90;;
59516;SDS011;45342;42.662;27.718;2023-06-24T16:37:18;11.65;;;6.70;;
59516;SDS011;45342;42.662;27.718;2023-06-24T16:39:43;10.82;;;6.82;;
59516;SDS011;45342;42.662;27.718;2023-06-24T16:42:09;12.48;;;6.97;;
59516;SDS011;45342;42.662;27.718;2023-06-24T16:44:34;9.55;;;6.47;;
59516;SDS011;45342;42.662;27.718;2023-06-24T16:47:03;9.95;;;6.60;;
59516;SDS011;45342;42.662;27.718;2023-06-24T16:49:29;11.02;;;6.78;;
59516;SDS011;45342;42.662;27.718;2023-06-24T16:51:54;11.07;;;7.40;;
59516;SDS011;45342;42.662;27.718;2023-06-24T16:54:20;9.77;;;6.63;;
59516;SDS011;45342;42.662;27.718;2023-06-24T16:56:46;13.88;;;7.15;;
59516;SDS011;45342;42.662;27.718;2023-06-24T16:59:13;12.15;;;7.32;;
59516;SDS011;45342;42.662;27.718;2023-06-24T17:01:39;11.45;;;6.82;;
59516;SDS011;45342;42.662;27.718;2023-06-24T17:04:04;13.90;;;7.20;;
59516;SDS011;45342;42.662;27.718;2023-06-24T17:06:30;13.15;;;7.47;;
59516;SDS011;45342;42.662;27.718;2023-06-24T17:08:57;11.80;;;7.20;;
59516;SDS011;45342;42.662;27.718;2023-06-24T17:11:26;10.52;;;7.53;;
59516;SDS011;45342;42.662;27.718;2023-06-24T17:13:52;10.45;;;7.20;;
59516;SDS011;45342;42.662;27.718;2023-06-24T17:16:17;11.30;;;7.85;;
59516;SDS011;45342;42.662;27.718;2023-06-24T17:18:43;13.00;;;8.10;;
59516;SDS011;45342;42.662;27.718;2023-06-24T17:21:09;11.88;;;8.25;;
59516;SDS011;45342;42.662;27.718;2023-06-24T17:23:35;12.27;;;7.93;;
59516;SDS011;45342;42.662;27.718;2023-06-24T17:26:01;12.73;;;8.90;;
59516;SDS011;45342;42.662;27.718;2023-06-24T17:28:27;13.40;;;8.52;;
59516;SDS011;45342;42.662;27.718;2023-06-24T17:30:53;12.07;;;8.63;;
59516;SDS011;45342;42.662;27.718;2023-06-24T17:33:19;11.55;;;7.68;;
59516;SDS011;45342;42.662;27.718;2023-06-24T17:35:44;12.48;;;8.27;;